sensor_id;sensor_type;location;lat;lon;timestamp;noise_LAeq;noise_LA_min;noise_LA_max;noise_LA01;noise_LA95
56099;Laerm;44276;49.534;6.378;2022-08-21T00:01:52;44.78;43.39;46.76;;
56099;Laerm;44276;49.534;6.378;2022-08-21T00:04:21;44.76;43.58;46.84;;
56099;Laerm;44276;49.534;6.378;2022-08-21T00:06:57;44.78;43.58;47.72;;
56099;Laerm;44276;49.534;6.378;2022-08-21T00:09:26;44.74;43.63;46.84;;
56099;Laerm;44276;49.534;6.378;2022-08-21T00:11:54;44.78;43.44;47.50;;
56099;Laerm;44276;49.534;6.378;2022-08-21T00:14:22;44.69;43.49;47.00;;
56099;Laerm;44276;49.534;6.378;2022-08-21T00:16:50;44.66;43.68;46.10;;
56099;Laerm;44276;49.534;6.378;2022-08-21T00:19:23;44.78;43.63;48.36;;
56099;Laerm;44276;49.534;6.378;2022-08-21T00:21:52;44.98;43.49;54.53;;
56099;Laerm;44276;49.534;6.378;2022-08-21T00:24:23;44.59;43.49;45.69;;
56099;Laerm;44276;49.534;6.378;2022-08-21T00:26:52;44.60;43.44;46.87;;
56099;Laerm;44276;49.534;6.378;2022-08-21T00:29:20;44.70;43.34;48.12;;
56099;Laerm;44276;49.534;6.378;2022-08-21T00:31:49;44.71;43.44;49.77;;
56099;Laerm;44276;49.534;6.378;2022-08-21T00:34:17;44.54;43.24;45.83;;
56099;Laerm;44276;49.534;6.378;2022-08-21T00:36:45;44.59;43.55;45.97;;
56099;Laerm;44276;49.534;6.378;2022-08-21T00:39:14;44.54;43.24;45.94;;
56099;Laerm;44276;49.534;6.378;2022-08-21T00:41:44;44.55;43.29;46.55;;
56099;Laerm;44276;49.534;6.378;2022-08-21T00:44:14;44.69;43.44;47.98;;
56099;Laerm;44276;49.534;6.378;2022-08-21T00:46:43;44.55;43.39;45.72;;
56099;Laerm;44276;49.534;6.378;2022-08-21T00:49:12;44.57;43.34;46.33;;
56099;Laerm;44276;49.534;6.378;2022-08-21T00:51:47;44.63;43.49;47.39;;
56099;Laerm;44276;49.534;6.378;2022-08-21T00:54:17;44.55;43.24;46.35;;
56099;Laerm;44276;49.534;6.378;2022-08-21T00:56:53;44.60;43.49;46.02;;
56099;Laerm;44276;49.534;6.378;2022-08-21T00:59:26;44.51;43.44;45.51;;
56099;Laerm;44276;49.534;6.378;2022-08-21T01:01:57;44.59;43.34;46.28;;
56099;Laerm;44276;49.534;6.378;2022-08-21T01:04:25;44.53;43.54;45.99;;
56099;Laerm;44276;49.534;6.378;2022-08-21T01:06:53;44.65;43.54;47.24;;
56099;Laerm;44276;49.534;6.378;2022-08-21T01:09:22;44.52;43.49;46.05;;
56099;Laerm;44276;49.534;6.378;2022-08-21T01:11:52;44.50;43.29;45.57;;
56099;Laerm;44276;49.534;6.378;2022-08-21T01:14:20;44.57;43.49;46.33;;
56099;Laerm;44276;49.534;6.378;2022-08-21T01:16:51;44.52;43.39;45.86;;
56099;Laerm;44276;49.534;6.378;2022-08-21T01:19:23;44.54;43.44;45.91;;
56099;Laerm;44276;49.534;6.378;2022-08-21T01:21:53;44.51;43.44;45.94;;
56099;Laerm;44276;49.534;6.378;2022-08-21T01:24:22;44.50;43.39;45.42;;
56099;Laerm;44276;49.534;6.378;2022-08-21T01:26:51;44.49;43.49;45.54;;
56099;Laerm;44276;49.534;6.378;2022-08-21T01:29:29;44.52;43.29;46.18;;
56099;Laerm;44276;49.534;6.378;2022-08-21T01:32:06;44.49;43.24;45.45;;
56099;Laerm;44276;49.534;6.378;2022-08-21T01:34:40;44.49;43.44;45.99;;
56099;Laerm;44276;49.534;6.378;2022-08-21T01:37:10;44.51;43.39;45.97;;
56099;Laerm;44276;49.534;6.378;2022-08-21T01:39:41;44.49;43.34;45.51;;
56099;Laerm;44276;49.534;6.378;2022-08-21T01:42:09;44.49;43.49;45.42;;
56099;Laerm;44276;49.534;6.378;2022-08-21T01:44:38;44.57;43.39;47.76;;
56099;Laerm;44276;49.534;6.378;2022-08-21T01:47:11;44.52;43.49;45.54;;
56099;Laerm;44276;49.534;6.378;2022-08-21T01:49:40;44.51;43.29;45.72;;
56099;Laerm;44276;49.534;6.378;2022-08-21T01:52:10;44.60;43.49;48.34;;
56099;Laerm;44276;49.534;6.378;2022-08-21T01:54:40;44.53;43.14;46.10;;
56099;Laerm;44276;49.534;6.378;2022-08-21T01:57:09;44.49;43.49;45.60;;
56099;Laerm;44276;49.534;6.378;2022-08-21T01:59:38;44.49;43.39;45.48;;
56099;Laerm;44276;49.534;6.378;2022-08-21T02:02:07;44.51;43.04;45.80;;
56099;Laerm;44276;49.534;6.378;2022-08-21T02:04:35;44.51;43.44;45.73;;
56099;Laerm;44276;49.534;6.378;2022-08-21T02:07:04;44.51;43.44;45.66;;
56099;Laerm;44276;49.534;6.378;2022-08-21T02:09:37;44.54;43.54;46.50;;
56099;Laerm;44276;49.534;6.378;2022-08-21T02:12:06;44.50;43.44;45.54;;
56099;Laerm;44276;49.534;6.378;2022-08-21T02:14:35;44.51;43.34;45.54;;
56099;Laerm;44276;49.534;6.378;2022-08-21T02:17:04;44.52;43.39;45.69;;
56099;Laerm;44276;49.534;6.378;2022-08-21T02:19:36;44.54;43.34;45.94;;
56099;Laerm;44276;49.534;6.378;2022-08-21T02:22:07;44.49;43.44;45.77;;
56099;Laerm;44276;49.534;6.378;2022-08-21T02:24:38;44.49;43.54;45.39;;
56099;Laerm;44276;49.534;6.378;2022-08-21T02:27:20;44.49;43.24;45.54;;
56099;Laerm;44276;49.534;6.378;2022-08-21T02:29:54;44.51;43.39;45.54;;
56099;Laerm;44276;49.534;6.378;2022-08-21T02:32:23;44.54;43.24;46.25;;
56099;Laerm;44276;49.534;6.378;2022-08-21T02:34:52;44.53;43.34;45.86;;
56099;Laerm;44276;49.534;6.378;2022-08-21T02:37:21;44.51;43.49;45.66;;
56099;Laerm;44276;49.534;6.378;2022-08-21T02:39:51;44.52;43.39;45.77;;
56099;Laerm;44276;49.534;6.378;2022-08-21T02:42:19;44.50;43.46;45.77;;
56099;Laerm;44276;49.534;6.378;2022-08-21T02:44:47;44.51;43.37;45.66;;
56099;Laerm;44276;49.534;6.378;2022-08-21T02:47:15;44.52;43.44;45.54;;
56099;Laerm;44276;49.534;6.378;2022-08-21T02:49:43;44.51;43.54;45.80;;
56099;Laerm;44276;49.534;6.378;2022-08-21T02:52:12;44.54;43.39;45.75;;
56099;Laerm;44276;49.534;6.378;2022-08-21T02:54:41;44.53;43.34;45.70;;
56099;Laerm;44276;49.534;6.378;2022-08-21T02:57:10;44.50;43.19;45.72;;
56099;Laerm;44276;49.534;6.378;2022-08-21T02:59:38;44.48;43.49;45.48;;
56099;Laerm;44276;49.534;6.378;2022-08-21T03:02:07;44.51;43.29;45.63;;
56099;Laerm;44276;49.534;6.378;2022-08-21T03:04:36;44.49;43.34;45.63;;
56099;Laerm;44276;49.534;6.378;2022-08-21T03:07:04;44.48;43.14;45.48;;
56099;Laerm;44276;49.534;6.378;2022-08-21T03:09:37;44.47;43.34;45.57;;
56099;Laerm;44276;49.534;6.378;2022-08-21T03:12:17;44.49;43.44;45.63;;
56099;Laerm;44276;49.534;6.378;2022-08-21T03:14:46;44.51;43.34;45.72;;
56099;Laerm;44276;49.534;6.378;2022-08-21T03:17:14;44.45;43.39;45.36;;
56099;Laerm;44276;49.534;6.378;2022-08-21T03:19:42;44.46;43.44;45.39;;
56099;Laerm;44276;49.534;6.378;2022-08-21T03:22:10;44.48;43.39;45.60;;
56099;Laerm;44276;49.534;6.378;2022-08-21T03:24:38;44.47;43.39;45.48;;
56099;Laerm;44276;49.534;6.378;2022-08-21T03:27:10;44.52;43.54;45.86;;
56099;Laerm;44276;49.534;6.378;2022-08-21T03:29:41;44.47;43.29;45.91;;
56099;Laerm;44276;49.534;6.378;2022-08-21T03:32:09;44.53;43.44;45.91;;
56099;Laerm;44276;49.534;6.378;2022-08-21T03:34:38;44.46;43.39;45.60;;
56099;Laerm;44276;49.534;6.378;2022-08-21T03:37:09;44.48;43.34;45.66;;
56099;Laerm;44276;49.534;6.378;2022-08-21T03:39:38;44.50;43.44;45.75;;
56099;Laerm;44276;49.534;6.378;2022-08-21T03:42:08;44.48;43.39;45.60;;
56099;Laerm;44276;49.534;6.378;2022-08-21T03:44:38;44.48;43.14;45.97;;
56099;Laerm;44276;49.534;6.378;2022-08-21T03:47:08;44.48;43.39;46.05;;
56099;Laerm;44276;49.534;6.378;2022-08-21T03:49:37;44.44;43.49;45.46;;
56099;Laerm;44276;49.534;6.378;2022-08-21T03:52:05;44.45;43.54;45.51;;
56099;Laerm;44276;49.534;6.378;2022-08-21T03:54:33;44.45;43.44;46.18;;
56099;Laerm;44276;49.534;6.378;2022-08-21T03:57:02;44.45;43.39;45.66;;
56099;Laerm;44276;49.534;6.378;2022-08-21T03:59:30;44.43;43.34;45.60;;
56099;Laerm;44276;49.534;6.378;2022-08-21T04:02:01;44.43;43.19;45.45;;
56099;Laerm;44276;49.534;6.378;2022-08-21T04:04:32;44.44;43.34;45.60;;
56099;Laerm;44276;49.534;6.378;2022-08-21T04:07:02;44.41;43.29;45.36;;
56099;Laerm;44276;49.534;6.378;2022-08-21T04:09:31;44.40;43.39;45.36;;
56099;Laerm;44276;49.534;6.378;2022-08-21T04:12:00;44.41;43.34;45.45;;
56099;Laerm;44276;49.534;6.378;2022-08-21T04:14:29;44.40;43.34;45.39;;
56099;Laerm;44276;49.534;6.378;2022-08-21T04:16:57;44.40;43.24;45.42;;
56099;Laerm;44276;49.534;6.378;2022-08-21T04:19:25;44.40;43.29;45.57;;
56099;Laerm;44276;49.534;6.378;2022-08-21T04:21:54;44.41;43.24;45.66;;
56099;Laerm;44276;49.534;6.378;2022-08-21T04:24:22;44.39;43.24;45.39;;
56099;Laerm;44276;49.534;6.378;2022-08-21T04:26:55;44.41;43.34;45.51;;
56099;Laerm;44276;49.534;6.378;2022-08-21T04:29:23;44.40;43.34;45.33;;
56099;Laerm;44276;49.534;6.378;2022-08-21T04:31:52;44.39;43.29;45.48;;
56099;Laerm;44276;49.534;6.378;2022-08-21T04:34:20;44.40;43.39;45.45;;
56099;Laerm;44276;49.534;6.378;2022-08-21T04:36:48;44.39;43.29;45.83;;
56099;Laerm;44276;49.534;6.378;2022-08-21T04:39:17;44.39;43.29;45.36;;
56099;Laerm;44276;49.534;6.378;2022-08-21T04:41:45;44.40;43.34;45.42;;
56099;Laerm;44276;49.534;6.378;2022-08-21T04:44:14;44.38;42.98;45.51;;
56099;Laerm;44276;49.534;6.378;2022-08-21T04:46:42;44.37;43.19;45.54;;
56099;Laerm;44276;49.534;6.378;2022-08-21T04:49:10;44.38;43.34;45.51;;
56099;Laerm;44276;49.534;6.378;2022-08-21T04:51:39;44.37;43.24;48.43;;
56099;Laerm;44276;49.534;6.378;2022-08-21T04:54:12;44.35;43.19;45.30;;
56099;Laerm;44276;49.534;6.378;2022-08-21T04:56:48;44.34;43.28;45.20;;
56099;Laerm;44276;49.534;6.378;2022-08-21T04:59:21;44.34;43.09;45.51;;
56099;Laerm;44276;49.534;6.378;2022-08-21T05:01:51;44.32;43.19;45.27;;
56099;Laerm;44276;49.534;6.378;2022-08-21T05:04:25;44.30;43.19;45.17;;
56099;Laerm;44276;49.534;6.378;2022-08-21T05:06:59;44.30;43.19;45.30;;
56099;Laerm;44276;49.534;6.378;2022-08-21T05:09:30;44.30;43.14;45.23;;
56099;Laerm;44276;49.534;6.378;2022-08-21T05:12:01;44.29;42.98;45.27;;
56099;Laerm;44276;49.534;6.378;2022-08-21T05:14:29;44.29;42.93;45.23;;
56099;Laerm;44276;49.534;6.378;2022-08-21T05:16:57;44.30;43.28;45.36;;
56099;Laerm;44276;49.534;6.378;2022-08-21T05:19:26;44.29;43.19;45.27;;
56099;Laerm;44276;49.534;6.378;2022-08-21T05:21:54;44.26;43.24;45.54;;
56099;Laerm;44276;49.534;6.378;2022-08-21T05:24:22;44.26;43.14;45.75;;
56099;Laerm;44276;49.534;6.378;2022-08-21T05:26:51;44.24;43.24;45.80;;
56099;Laerm;44276;49.534;6.378;2022-08-21T05:29:21;44.23;43.09;45.48;;
56099;Laerm;44276;49.534;6.378;2022-08-21T05:31:49;44.18;43.19;45.23;;
56099;Laerm;44276;49.534;6.378;2022-08-21T05:34:20;44.17;42.98;45.33;;
56099;Laerm;44276;49.534;6.378;2022-08-21T05:36:49;44.10;42.98;45.20;;
56099;Laerm;44276;49.534;6.378;2022-08-21T05:39:17;44.08;42.93;45.01;;
56099;Laerm;44276;49.534;6.378;2022-08-21T05:41:45;44.06;43.04;45.04;;
56099;Laerm;44276;49.534;6.378;2022-08-21T05:44:14;44.02;42.88;44.94;;
56099;Laerm;44276;49.534;6.378;2022-08-21T05:46:43;44.02;42.98;45.04;;
56099;Laerm;44276;49.534;6.378;2022-08-21T05:49:12;44.01;43.09;45.14;;
56099;Laerm;44276;49.534;6.378;2022-08-21T05:51:41;44.02;43.04;44.83;;
56099;Laerm;44276;49.534;6.378;2022-08-21T05:54:09;44.01;42.88;44.87;;
56099;Laerm;44276;49.534;6.378;2022-08-21T05:56:37;44.00;43.04;45.23;;
56099;Laerm;44276;49.534;6.378;2022-08-21T05:59:06;44.02;43.04;45.04;;
56099;Laerm;44276;49.534;6.378;2022-08-21T06:01:34;44.01;43.04;47.59;;
56099;Laerm;44276;49.534;6.378;2022-08-21T06:04:05;44.02;42.93;45.07;;
56099;Laerm;44276;49.534;6.378;2022-08-21T06:06:34;44.03;42.71;45.51;;
56099;Laerm;44276;49.534;6.378;2022-08-21T06:09:03;44.06;42.93;45.07;;
56099;Laerm;44276;49.534;6.378;2022-08-21T06:11:33;44.09;42.88;45.77;;
56099;Laerm;44276;49.534;6.378;2022-08-21T06:14:01;44.11;42.98;45.07;;
56099;Laerm;44276;49.534;6.378;2022-08-21T06:16:29;44.11;43.09;45.04;;
56099;Laerm;44276;49.534;6.378;2022-08-21T06:18:57;44.13;43.09;45.14;;
56099;Laerm;44276;49.534;6.378;2022-08-21T06:21:30;44.15;43.09;45.27;;
56099;Laerm;44276;49.534;6.378;2022-08-21T06:23:58;44.14;43.14;45.17;;
56099;Laerm;44276;49.534;6.378;2022-08-21T06:26:26;44.13;43.19;45.23;;
56099;Laerm;44276;49.534;6.378;2022-08-21T06:28:56;44.15;43.09;45.01;;
56099;Laerm;44276;49.534;6.378;2022-08-21T06:31:26;44.22;43.19;45.17;;
56099;Laerm;44276;49.534;6.378;2022-08-21T06:33:55;44.34;43.14;45.48;;
56099;Laerm;44276;49.534;6.378;2022-08-21T06:36:24;44.40;43.39;45.42;;
56099;Laerm;44276;49.534;6.378;2022-08-21T06:38:54;44.54;43.55;45.63;;
56099;Laerm;44276;49.534;6.378;2022-08-21T06:41:24;44.63;43.58;45.77;;
56099;Laerm;44276;49.534;6.378;2022-08-21T06:43:54;44.71;43.39;51.08;;
56099;Laerm;44276;49.534;6.378;2022-08-21T06:46:25;44.71;43.72;46.15;;
56099;Laerm;44276;49.534;6.378;2022-08-21T06:48:54;44.71;43.63;45.99;;
56099;Laerm;44276;49.534;6.378;2022-08-21T06:51:23;44.82;43.76;46.45;;
56099;Laerm;44276;49.534;6.378;2022-08-21T06:53:54;44.92;43.81;46.50;;
56099;Laerm;44276;49.534;6.378;2022-08-21T06:56:25;44.89;43.81;46.71;;
56099;Laerm;44276;49.534;6.378;2022-08-21T06:58:53;45.04;43.81;48.15;;
56099;Laerm;44276;49.534;6.378;2022-08-21T07:01:24;45.03;43.86;47.70;;
56099;Laerm;44276;49.534;6.378;2022-08-21T07:03:56;44.90;43.49;47.18;;
56099;Laerm;44276;49.534;6.378;2022-08-21T07:06:24;45.27;43.77;48.23;;
56099;Laerm;44276;49.534;6.378;2022-08-21T07:08:54;45.00;43.77;49.24;;
56099;Laerm;44276;49.534;6.378;2022-08-21T07:11:25;45.36;43.68;50.77;;
56099;Laerm;44276;49.534;6.378;2022-08-21T07:13:53;45.95;43.81;53.27;;
56099;Laerm;44276;49.534;6.378;2022-08-21T07:16:23;45.00;43.77;49.21;;
56099;Laerm;44276;49.534;6.378;2022-08-21T07:18:51;44.95;43.72;48.83;;
56099;Laerm;44276;49.534;6.378;2022-08-21T07:21:20;44.75;43.37;46.78;;
56099;Laerm;44276;49.534;6.378;2022-08-21T07:23:54;44.69;43.14;50.55;;
56099;Laerm;44276;49.534;6.378;2022-08-21T07:26:23;45.10;43.39;54.27;;
56099;Laerm;44276;49.534;6.378;2022-08-21T07:28:53;44.88;43.34;50.93;;
56099;Laerm;44276;49.534;6.378;2022-08-21T07:31:24;44.69;43.24;47.96;;
56099;Laerm;44276;49.534;6.378;2022-08-21T07:33:53;44.77;43.04;48.61;;
56099;Laerm;44276;49.534;6.378;2022-08-21T07:36:22;44.66;43.14;52.93;;
56099;Laerm;44276;49.534;6.378;2022-08-21T07:38:51;44.59;43.04;51.62;;
56099;Laerm;44276;49.534;6.378;2022-08-21T07:41:23;44.44;42.93;51.71;;
56099;Laerm;44276;49.534;6.378;2022-08-21T07:43:53;44.39;42.76;48.25;;
56099;Laerm;44276;49.534;6.378;2022-08-21T07:46:21;44.18;42.47;47.84;;
56099;Laerm;44276;49.534;6.378;2022-08-21T07:48:49;44.20;42.53;48.15;;
56099;Laerm;44276;49.534;6.378;2022-08-21T07:51:24;43.87;42.22;46.57;;
56099;Laerm;44276;49.534;6.378;2022-08-21T07:53:57;44.13;42.41;48.90;;
56099;Laerm;44276;49.534;6.378;2022-08-21T07:56:29;44.25;42.29;54.51;;
56099;Laerm;44276;49.534;6.378;2022-08-21T07:58:58;44.05;42.29;48.52;;
56099;Laerm;44276;49.534;6.378;2022-08-21T08:01:26;44.68;42.22;49.58;;
56099;Laerm;44276;49.534;6.378;2022-08-21T08:03:54;44.69;42.09;50.17;;
56099;Laerm;44276;49.534;6.378;2022-08-21T08:06:23;44.15;42.22;50.34;;
56099;Laerm;44276;49.534;6.378;2022-08-21T08:08:52;43.91;41.82;46.91;;
56099;Laerm;44276;49.534;6.378;2022-08-21T08:11:20;43.90;41.82;55.18;;
56099;Laerm;44276;49.534;6.378;2022-08-21T08:13:52;44.14;41.68;53.67;;
56099;Laerm;44276;49.534;6.378;2022-08-21T08:16:20;44.36;41.68;50.44;;
56099;Laerm;44276;49.534;6.378;2022-08-21T08:18:49;43.52;41.46;47.46;;
56099;Laerm;44276;49.534;6.378;2022-08-21T08:21:18;43.36;40.62;50.68;;
56099;Laerm;44276;49.534;6.378;2022-08-21T08:23:48;44.67;40.80;59.48;;
56099;Laerm;44276;49.534;6.378;2022-08-21T08:26:16;43.48;40.98;49.40;;
56099;Laerm;44276;49.534;6.378;2022-08-21T08:28:44;44.62;40.98;54.14;;
56099;Laerm;44276;49.534;6.378;2022-08-21T08:31:15;43.69;40.89;49.16;;
56099;Laerm;44276;49.534;6.378;2022-08-21T08:33:43;43.18;40.80;51.59;;
56099;Laerm;44276;49.534;6.378;2022-08-21T08:36:15;43.88;40.89;49.41;;
56099;Laerm;44276;49.534;6.378;2022-08-21T08:38:46;53.08;41.06;71.97;;
56099;Laerm;44276;49.534;6.378;2022-08-21T08:41:19;43.56;40.71;48.31;;
56099;Laerm;44276;49.534;6.378;2022-08-21T08:43:53;43.87;40.23;55.58;;
56099;Laerm;44276;49.534;6.378;2022-08-21T08:46:33;43.76;40.13;49.27;;
56099;Laerm;44276;49.534;6.378;2022-08-21T08:49:10;44.11;40.62;53.37;;
56099;Laerm;44276;49.534;6.378;2022-08-21T08:51:47;44.30;40.33;56.13;;
56099;Laerm;44276;49.534;6.378;2022-08-21T08:54:26;43.13;40.33;52.24;;
56099;Laerm;44276;49.534;6.378;2022-08-21T08:57:00;49.52;40.53;61.90;;
56099;Laerm;44276;49.534;6.378;2022-08-21T08:59:38;45.99;40.23;54.42;;
56099;Laerm;44276;49.534;6.378;2022-08-21T09:02:13;44.42;40.62;52.92;;
56099;Laerm;44276;49.534;6.378;2022-08-21T09:04:45;44.28;39.81;58.32;;
56099;Laerm;44276;49.534;6.378;2022-08-21T09:07:29;43.46;40.23;48.69;;
56099;Laerm;44276;49.534;6.378;2022-08-21T09:10:12;43.42;40.33;51.71;;
56099;Laerm;44276;49.534;6.378;2022-08-21T09:12:52;43.72;39.92;51.45;;
56099;Laerm;44276;49.534;6.378;2022-08-21T09:15:32;42.72;39.81;46.78;;
56099;Laerm;44276;49.534;6.378;2022-08-21T09:18:20;44.31;39.58;51.29;;
56099;Laerm;44276;49.534;6.378;2022-08-21T09:21:09;43.76;39.70;51.29;;
56099;Laerm;44276;49.534;6.378;2022-08-21T09:23:49;43.90;39.58;56.28;;
56099;Laerm;44276;49.534;6.378;2022-08-21T09:26:25;44.05;39.81;53.51;;
56099;Laerm;44276;49.534;6.378;2022-08-21T09:28:58;44.93;40.43;54.04;;
56099;Laerm;44276;49.534;6.378;2022-08-21T09:31:31;42.85;39.58;54.32;;
56099;Laerm;44276;49.534;6.378;2022-08-21T09:34:04;43.99;39.92;49.83;;
56099;Laerm;44276;49.534;6.378;2022-08-21T09:36:40;42.64;39.21;46.93;;
56099;Laerm;44276;49.534;6.378;2022-08-21T09:39:13;44.08;40.03;52.33;;
56099;Laerm;44276;49.534;6.378;2022-08-21T09:41:42;43.09;39.70;52.15;;
56099;Laerm;44276;49.534;6.378;2022-08-21T09:44:10;44.88;39.46;56.50;;
56099;Laerm;44276;49.534;6.378;2022-08-21T09:46:49;44.94;39.21;60.12;;
56099;Laerm;44276;49.534;6.378;2022-08-21T09:49:29;42.87;38.95;50.31;;
56099;Laerm;44276;49.534;6.378;2022-08-21T09:51:58;43.92;39.58;53.42;;
56099;Laerm;44276;49.534;6.378;2022-08-21T09:54:31;43.58;39.46;52.28;;
56099;Laerm;44276;49.534;6.378;2022-08-21T09:57:14;44.98;37.52;62.97;;
56099;Laerm;44276;49.534;6.378;2022-08-21T10:00:24;41.94;38.37;46.76;;
56099;Laerm;44276;49.534;6.378;2022-08-21T10:02:53;44.18;38.05;61.65;;
56099;Laerm;44276;49.534;6.378;2022-08-21T10:05:25;47.61;38.81;60.75;;
56099;Laerm;44276;49.534;6.378;2022-08-21T10:07:55;43.74;38.52;51.50;;
56099;Laerm;44276;49.534;6.378;2022-08-21T10:10:28;44.37;38.95;53.92;;
56099;Laerm;44276;49.534;6.378;2022-08-21T10:13:05;46.07;38.21;60.20;;
56099;Laerm;44276;49.534;6.378;2022-08-21T10:16:07;45.95;38.95;60.77;;
56099;Laerm;44276;49.534;6.378;2022-08-21T10:18:45;44.37;38.67;55.46;;
56099;Laerm;44276;49.534;6.378;2022-08-21T10:21:27;42.88;39.46;55.50;;
56099;Laerm;44276;49.534;6.378;2022-08-21T10:24:08;43.96;39.21;51.89;;
56099;Laerm;44276;49.534;6.378;2022-08-21T10:27:14;43.52;38.37;49.08;;
56099;Laerm;44276;49.534;6.378;2022-08-21T10:29:53;45.07;39.46;53.99;;
56099;Laerm;44276;49.534;6.378;2022-08-21T10:32:45;43.56;38.95;50.63;;
56099;Laerm;44276;49.534;6.378;2022-08-21T10:35:23;43.21;37.12;54.27;;
56099;Laerm;44276;49.534;6.378;2022-08-21T10:38:27;46.85;38.81;65.12;;
56099;Laerm;44276;49.534;6.378;2022-08-21T10:41:37;44.18;38.87;64.18;;
56099;Laerm;44276;49.534;6.378;2022-08-21T10:44:22;42.80;39.08;48.63;;
56099;Laerm;44276;49.534;6.378;2022-08-21T10:47:00;42.75;38.95;48.10;;
56099;Laerm;44276;49.534;6.378;2022-08-21T10:49:39;44.48;39.34;51.81;;
56099;Laerm;44276;49.534;6.378;2022-08-21T10:55:26;43.89;38.81;58.27;;
56099;Laerm;44276;49.534;6.378;2022-08-21T10:57:59;43.09;39.21;50.99;;
56099;Laerm;44276;49.534;6.378;2022-08-21T11:00:36;43.28;39.34;49.47;;
56099;Laerm;44276;49.534;6.378;2022-08-21T11:03:14;43.74;39.08;51.91;;
56099;Laerm;44276;49.534;6.378;2022-08-21T11:05:50;43.24;38.81;52.51;;
56099;Laerm;44276;49.534;6.378;2022-08-21T11:08:27;44.17;38.21;60.58;;
56099;Laerm;44276;49.534;6.378;2022-08-21T11:11:04;45.65;37.12;62.41;;
56099;Laerm;44276;49.534;6.378;2022-08-21T11:13:40;43.87;38.21;58.34;;
56099;Laerm;44276;49.534;6.378;2022-08-21T11:16:18;43.90;39.21;52.06;;
56099;Laerm;44276;49.534;6.378;2022-08-21T11:18:55;44.07;37.70;57.09;;
56099;Laerm;44276;49.534;6.378;2022-08-21T11:21:37;44.93;38.95;60.10;;
56099;Laerm;44276;49.534;6.378;2022-08-21T11:24:22;43.47;38.81;51.00;;
56099;Laerm;44276;49.534;6.378;2022-08-21T11:27:03;42.78;39.08;49.89;;
56099;Laerm;44276;49.534;6.378;2022-08-21T11:29:37;42.52;38.37;50.68;;
56099;Laerm;44276;49.534;6.378;2022-08-21T11:32:29;42.76;38.52;56.33;;
56099;Laerm;44276;49.534;6.378;2022-08-21T11:35:11;43.02;38.52;56.92;;
56099;Laerm;44276;49.534;6.378;2022-08-21T11:37:58;44.18;39.46;54.94;;
56099;Laerm;44276;49.534;6.378;2022-08-21T11:40:46;43.17;38.81;52.80;;
56099;Laerm;44276;49.534;6.378;2022-08-21T11:43:30;42.57;38.37;52.29;;
56099;Laerm;44276;49.534;6.378;2022-08-21T11:46:17;42.44;38.67;50.00;;
56099;Laerm;44276;49.534;6.378;2022-08-21T11:49:06;43.28;37.88;56.97;;
56099;Laerm;44276;49.534;6.378;2022-08-21T11:51:45;42.03;38.05;49.27;;
56099;Laerm;44276;49.534;6.378;2022-08-21T11:54:26;42.97;38.37;50.30;;
56099;Laerm;44276;49.534;6.378;2022-08-21T11:57:02;42.05;37.32;47.76;;
56099;Laerm;44276;49.534;6.378;2022-08-21T11:59:39;42.69;38.52;52.52;;
56099;Laerm;44276;49.534;6.378;2022-08-21T12:02:12;42.98;38.52;49.33;;
56099;Laerm;44276;49.534;6.378;2022-08-21T12:04:48;43.07;38.47;53.71;;
56099;Laerm;44276;49.534;6.378;2022-08-21T12:07:34;43.74;38.37;55.02;;
56099;Laerm;44276;49.534;6.378;2022-08-21T12:10:09;43.30;37.88;52.66;;
56099;Laerm;44276;49.534;6.378;2022-08-21T12:12:40;43.16;38.05;51.79;;
56099;Laerm;44276;49.534;6.378;2022-08-21T12:15:26;42.99;38.37;49.44;;
56099;Laerm;44276;49.534;6.378;2022-08-21T12:17:59;45.33;38.21;62.73;;
56099;Laerm;44276;49.534;6.378;2022-08-21T12:20:43;44.11;39.08;54.98;;
56099;Laerm;44276;49.534;6.378;2022-08-21T12:23:26;43.99;38.81;55.47;;
56099;Laerm;44276;49.534;6.378;2022-08-21T12:26:20;43.00;37.32;50.44;;
56099;Laerm;44276;49.534;6.378;2022-08-21T12:28:50;43.78;37.70;56.93;;
56099;Laerm;44276;49.534;6.378;2022-08-21T12:31:25;43.38;38.37;53.37;;
56099;Laerm;44276;49.534;6.378;2022-08-21T12:33:58;42.62;38.21;57.02;;
56099;Laerm;44276;49.534;6.378;2022-08-21T12:36:45;42.36;38.95;47.52;;
56099;Laerm;44276;49.534;6.378;2022-08-21T12:39:23;42.64;38.21;50.75;;
56099;Laerm;44276;49.534;6.378;2022-08-21T12:41:58;43.90;38.37;56.44;;
56099;Laerm;44276;49.534;6.378;2022-08-21T12:44:38;42.79;37.70;54.10;;
56099;Laerm;44276;49.534;6.378;2022-08-21T12:47:17;42.64;38.32;50.12;;
56099;Laerm;44276;49.534;6.378;2022-08-21T12:50:00;43.00;37.70;51.43;;
56099;Laerm;44276;49.534;6.378;2022-08-21T12:52:35;42.57;38.05;49.56;;
56099;Laerm;44276;49.534;6.378;2022-08-21T12:55:07;42.97;38.37;52.38;;
56099;Laerm;44276;49.534;6.378;2022-08-21T12:57:40;43.03;38.37;51.93;;
56099;Laerm;44276;49.534;6.378;2022-08-21T13:00:13;43.85;38.87;52.60;;
56099;Laerm;44276;49.534;6.378;2022-08-21T13:02:48;44.97;38.05;58.45;;
56099;Laerm;44276;49.534;6.378;2022-08-21T13:05:29;43.72;38.67;49.78;;
56099;Laerm;44276;49.534;6.378;2022-08-21T13:07:58;46.56;38.21;62.98;;
56099;Laerm;44276;49.534;6.378;2022-08-21T13:10:33;45.00;37.52;58.43;;
56099;Laerm;44276;49.534;6.378;2022-08-21T13:13:06;44.52;37.12;56.80;;
56099;Laerm;44276;49.534;6.378;2022-08-21T13:15:41;43.44;37.17;54.31;;
56099;Laerm;44276;49.534;6.378;2022-08-21T13:18:24;43.87;35.94;57.34;;
56099;Laerm;44276;49.534;6.378;2022-08-21T13:21:04;45.01;37.52;57.12;;
56099;Laerm;44276;49.534;6.378;2022-08-21T13:23:33;43.14;37.12;52.68;;
56099;Laerm;44276;49.534;6.378;2022-08-21T13:26:13;45.46;38.37;57.60;;
56099;Laerm;44276;49.534;6.378;2022-08-21T13:28:45;43.78;36.91;53.98;;
56099;Laerm;44276;49.534;6.378;2022-08-21T13:31:20;44.52;37.88;52.22;;
56099;Laerm;44276;49.534;6.378;2022-08-21T13:33:54;43.50;38.37;54.00;;
56099;Laerm;44276;49.534;6.378;2022-08-21T13:36:29;43.37;38.05;50.89;;
56099;Laerm;44276;49.534;6.378;2022-08-21T13:38:59;43.17;38.21;49.11;;
56099;Laerm;44276;49.534;6.378;2022-08-21T13:41:32;43.97;37.52;55.23;;
56099;Laerm;44276;49.534;6.378;2022-08-21T13:44:05;43.84;37.70;52.31;;
56099;Laerm;44276;49.534;6.378;2022-08-21T13:46:35;46.45;37.52;54.78;;
56099;Laerm;44276;49.534;6.378;2022-08-21T13:49:07;44.80;37.52;54.16;;
56099;Laerm;44276;49.534;6.378;2022-08-21T13:51:37;48.06;37.88;61.00;;
56099;Laerm;44276;49.534;6.378;2022-08-21T13:54:18;44.96;37.70;61.45;;
56099;Laerm;44276;49.534;6.378;2022-08-21T13:56:49;48.05;38.67;61.97;;
56099;Laerm;44276;49.534;6.378;2022-08-21T13:59:29;44.79;37.52;59.75;;
56099;Laerm;44276;49.534;6.378;2022-08-21T14:02:01;45.20;37.88;58.10;;
56099;Laerm;44276;49.534;6.378;2022-08-21T14:04:43;47.12;39.81;64.10;;
56099;Laerm;44276;49.534;6.378;2022-08-21T14:07:24;43.29;37.12;52.34;;
56099;Laerm;44276;49.534;6.378;2022-08-21T14:09:55;44.80;38.52;55.14;;
56099;Laerm;44276;49.534;6.378;2022-08-21T14:12:29;43.84;38.21;58.69;;
56099;Laerm;44276;49.534;6.378;2022-08-21T14:15:05;45.45;38.52;54.69;;
56099;Laerm;44276;49.534;6.378;2022-08-21T14:17:37;43.31;36.91;52.33;;
56099;Laerm;44276;49.534;6.378;2022-08-21T14:20:11;46.40;38.52;57.37;;